KCOU/COU METAR and TAF weather

Enter ICAO airport designator
Station Type Date Time Source
KCOU METAR 2022/07/03 14:54 UTC NOAA

KCOU 031454Z 13005KT 10SM OVC030 24/22 A3009 RMK AO2 SLP181 T02390217 50005


Station Type Date Time Source
KCOU Decoded METAR 2022/07/03 14:54 UTC NOAA

COLUMBIA REGIONAL AIRPORT, MO, United States (KCOU) 38-49N 092-13W 271M
Jul 03, 2022 - 10:54 AM EDT / 2022.07.03 1454 UTC
Wind: from the SE (130 degrees) at 6 MPH (5 KT):0
Visibility: 10 mile(s):0
Sky conditions: overcast
Temperature: 75.0 F (23.9 C)
Dew Point: 71.1 F (21.7 C)
Relative Humidity: 87%
Pressure (altimeter): 30.09 in. Hg (1018 hPa)
Pressure tendency: 0.01 inches (0.5 hPa) higher than three hours ago
ob: KCOU 031454Z 13005KT 10SM OVC030 24/22 A3009 RMK AO2 SLP181 T02390217 50005
cycle: 15

Station Type Date Time Source
KCOU TAF 2022/07/03 15:42 UTC NOAA

TAF
AMD KCOU 031440Z 0315/0412 13006KT P6SM BKN025
FM031700 13007KT P6SM SCT025

Example: see airport list